sensor_id;sensor_type;location;lat;lon;timestamp;pressure;altitude;pressure_sealevel;temperature;humidity
12247;BME280;6186;52.022;4.692;2022-11-15T00:00:44;100867.00;;;8.42;91.97
12247;BME280;6186;52.022;4.692;2022-11-15T00:03:10;100879.16;;;8.46;91.92
12247;BME280;6186;52.022;4.692;2022-11-15T00:05:37;100878.31;;;8.45;92.06
12247;BME280;6186;52.022;4.692;2022-11-15T00:08:03;100882.69;;;8.45;92.17
12247;BME280;6186;52.022;4.692;2022-11-15T00:10:28;100878.34;;;8.44;92.12
12247;BME280;6186;52.022;4.692;2022-11-15T00:12:53;100878.28;;;8.47;92.17
12247;BME280;6186;52.022;4.692;2022-11-15T00:15:18;100880.06;;;8.45;92.50
12247;BME280;6186;52.022;4.692;2022-11-15T00:17:44;100880.06;;;8.45;92.74
12247;BME280;6186;52.022;4.692;2022-11-15T00:20:09;100874.84;;;8.43;92.72
12247;BME280;6186;52.022;4.692;2022-11-15T00:22:36;100879.19;;;8.44;92.84
12247;BME280;6186;52.022;4.692;2022-11-15T00:25:02;100868.69;;;8.44;92.88
12247;BME280;6186;52.022;4.692;2022-11-15T00:27:28;100866.97;;;8.43;93.05
12247;BME280;6186;52.022;4.692;2022-11-15T00:29:53;100859.13;;;8.42;93.13
12247;BME280;6186;52.022;4.692;2022-11-15T00:32:19;100867.84;;;8.44;93.42
12247;BME280;6186;52.022;4.692;2022-11-15T00:34:44;100866.09;;;8.43;93.38
12247;BME280;6186;52.022;4.692;2022-11-15T00:37:09;100853.91;;;8.42;93.69
12247;BME280;6186;52.022;4.692;2022-11-15T00:39:35;100861.75;;;8.42;93.85
12247;BME280;6186;52.022;4.692;2022-11-15T00:42:00;100846.97;;;8.38;93.91
12247;BME280;6186;52.022;4.692;2022-11-15T00:44:25;100848.59;;;8.45;94.08
12247;BME280;6186;52.022;4.692;2022-11-15T00:46:50;100840.78;;;8.40;94.36
12247;BME280;6186;52.022;4.692;2022-11-15T00:49:16;100838.97;;;8.45;94.45
12247;BME280;6186;52.022;4.692;2022-11-15T00:51:41;100850.22;;;8.52;94.35
12247;BME280;6186;52.022;4.692;2022-11-15T00:54:06;100837.94;;;8.54;94.56
12247;BME280;6186;52.022;4.692;2022-11-15T00:56:31;100844.91;;;8.57;94.56
12247;BME280;6186;52.022;4.692;2022-11-15T00:58:57;100843.16;;;8.57;94.73
12247;BME280;6186;52.022;4.692;2022-11-15T01:01:23;100843.13;;;8.59;94.87
12247;BME280;6186;52.022;4.692;2022-11-15T01:03:48;100848.34;;;8.60;95.11
12247;BME280;6186;52.022;4.692;2022-11-15T01:06:13;100844.81;;;8.61;95.04
12247;BME280;6186;52.022;4.692;2022-11-15T01:08:39;100843.03;;;8.63;95.45
12247;BME280;6186;52.022;4.692;2022-11-15T01:11:08;100839.56;;;8.63;95.43
12247;BME280;6186;52.022;4.692;2022-11-15T01:13:35;100838.69;;;8.62;95.70
12247;BME280;6186;52.022;4.692;2022-11-15T01:16:27;100832.53;;;8.63;96.01
12247;BME280;6186;52.022;4.692;2022-11-15T01:18:52;100833.38;;;8.65;96.03
12247;BME280;6186;52.022;4.692;2022-11-15T01:21:19;100821.09;;;8.67;96.17
12247;BME280;6186;52.022;4.692;2022-11-15T01:23:44;100821.94;;;8.69;96.21
12247;BME280;6186;52.022;4.692;2022-11-15T01:26:12;100824.50;;;8.72;96.57
12247;BME280;6186;52.022;4.692;2022-11-15T01:28:41;100810.56;;;8.70;96.53
12247;BME280;6186;52.022;4.692;2022-11-15T01:31:12;100818.31;;;8.76;96.62
12247;BME280;6186;52.022;4.692;2022-11-15T01:33:37;100802.69;;;8.70;96.77
12247;BME280;6186;52.022;4.692;2022-11-15T01:36:07;100807.81;;;8.76;97.12
12247;BME280;6186;52.022;4.692;2022-11-15T01:38:35;100798.25;;;8.74;97.31
12247;BME280;6186;52.022;4.692;2022-11-15T01:41:00;100803.44;;;8.75;97.43
12247;BME280;6186;52.022;4.692;2022-11-15T01:43:28;100815.56;;;8.82;97.67
12247;BME280;6186;52.022;4.692;2022-11-15T01:48:38;100801.56;;;8.83;97.86
12247;BME280;6186;52.022;4.692;2022-11-15T01:51:07;100801.41;;;8.91;98.30
12247;BME280;6186;52.022;4.692;2022-11-15T01:53:37;100805.72;;;8.93;98.17
12247;BME280;6186;52.022;4.692;2022-11-15T01:56:06;100803.94;;;8.95;98.47
12247;BME280;6186;52.022;4.692;2022-11-15T01:58:33;100802.16;;;8.97;98.49
12247;BME280;6186;52.022;4.692;2022-11-15T02:00:59;100796.03;;;8.98;98.57
12247;BME280;6186;52.022;4.692;2022-11-15T02:03:30;100777.69;;;8.95;98.47
12247;BME280;6186;52.022;4.692;2022-11-15T02:05:59;100790.66;;;9.03;98.70
12247;BME280;6186;52.022;4.692;2022-11-15T02:08:24;100782.78;;;9.04;98.96
12247;BME280;6186;52.022;4.692;2022-11-15T02:10:49;100782.72;;;9.07;99.01
12247;BME280;6186;52.022;4.692;2022-11-15T02:13:16;100772.19;;;9.07;99.19
12247;BME280;6186;52.022;4.692;2022-11-15T02:15:58;100767.88;;;9.06;99.25
12247;BME280;6186;52.022;4.692;2022-11-15T02:18:26;100757.22;;;9.12;99.31
12247;BME280;6186;52.022;4.692;2022-11-15T02:21:05;100763.28;;;9.14;99.38
12247;BME280;6186;52.022;4.692;2022-11-15T02:26:57;100752.72;;;9.19;99.88
12247;BME280;6186;52.022;4.692;2022-11-15T02:32:19;100749.09;;;9.24;100.00
12247;BME280;6186;52.022;4.692;2022-11-15T02:35:01;100745.53;;;9.27;100.00
12247;BME280;6186;52.022;4.692;2022-11-15T02:40:58;100737.53;;;9.31;100.00
12247;BME280;6186;52.022;4.692;2022-11-15T02:46:50;100729.56;;;9.36;100.00
12247;BME280;6186;52.022;4.692;2022-11-15T02:49:36;100713.06;;;9.29;100.00
12247;BME280;6186;52.022;4.692;2022-11-15T02:52:03;100734.75;;;9.40;100.00
12247;BME280;6186;52.022;4.692;2022-11-15T02:54:31;100732.91;;;9.44;100.00
12247;BME280;6186;52.022;4.692;2022-11-15T02:57:12;100724.06;;;9.48;100.00
12247;BME280;6186;52.022;4.692;2022-11-15T03:00:05;100728.31;;;9.52;100.00
12247;BME280;6186;52.022;4.692;2022-11-15T03:08:14;100723.66;;;9.65;100.00
12247;BME280;6186;52.022;4.692;2022-11-15T03:10:49;100723.59;;;9.68;100.00
12247;BME280;6186;52.022;4.692;2022-11-15T03:13:33;100717.34;;;9.72;100.00
12247;BME280;6186;52.022;4.692;2022-11-15T03:18:59;100726.81;;;9.79;100.00
12247;BME280;6186;52.022;4.692;2022-11-15T03:21:28;100717.97;;;9.83;100.00
12247;BME280;6186;52.022;4.692;2022-11-15T03:23:58;100715.28;;;9.86;100.00
12247;BME280;6186;52.022;4.692;2022-11-15T03:26:28;100721.38;;;9.88;100.00
12247;BME280;6186;52.022;4.692;2022-11-15T03:29:04;100728.25;;;9.92;100.00
12247;BME280;6186;52.022;4.692;2022-11-15T03:31:36;100732.56;;;9.94;100.00
12247;BME280;6186;52.022;4.692;2022-11-15T03:36:49;100723.72;;;9.98;100.00
12247;BME280;6186;52.022;4.692;2022-11-15T03:39:14;100725.28;;;10.05;100.00
12247;BME280;6186;52.022;4.692;2022-11-15T03:47:03;100724.16;;;10.17;100.00
12247;BME280;6186;52.022;4.692;2022-11-15T03:49:33;100718.84;;;10.20;100.00
12247;BME280;6186;52.022;4.692;2022-11-15T03:52:00;100727.53;;;10.22;100.00
12247;BME280;6186;52.022;4.692;2022-11-15T03:54:25;100724.84;;;10.25;100.00
12247;BME280;6186;52.022;4.692;2022-11-15T03:56:51;100730.91;;;10.27;100.00
12247;BME280;6186;52.022;4.692;2022-11-15T03:59:16;100719.53;;;10.26;100.00
12247;BME280;6186;52.022;4.692;2022-11-15T04:01:41;100724.63;;;10.32;100.00
12247;BME280;6186;52.022;4.692;2022-11-15T04:04:07;100714.00;;;10.35;100.00
12247;BME280;6186;52.022;4.692;2022-11-15T04:06:32;100700.03;;;10.33;100.00
12247;BME280;6186;52.022;4.692;2022-11-15T04:08:57;100712.97;;;10.43;100.00
12247;BME280;6186;52.022;4.692;2022-11-15T04:11:23;100705.03;;;10.44;100.00
12247;BME280;6186;52.022;4.692;2022-11-15T04:13:48;100699.72;;;10.46;100.00
12247;BME280;6186;52.022;4.692;2022-11-15T04:16:13;100697.03;;;10.47;100.00
12247;BME280;6186;52.022;4.692;2022-11-15T04:18:39;100692.56;;;10.51;100.00
12247;BME280;6186;52.022;4.692;2022-11-15T04:21:04;100697.81;;;10.52;100.00
12247;BME280;6186;52.022;4.692;2022-11-15T04:23:48;100688.06;;;10.54;100.00
12247;BME280;6186;52.022;4.692;2022-11-15T04:26:32;100673.19;;;10.53;100.00
12247;BME280;6186;52.022;4.692;2022-11-15T04:28:57;100679.19;;;10.58;100.00
12247;BME280;6186;52.022;4.692;2022-11-15T04:31:41;100683.50;;;10.61;100.00
12247;BME280;6186;52.022;4.692;2022-11-15T04:34:06;100693.09;;;10.63;100.00
12247;BME280;6186;52.022;4.692;2022-11-15T04:36:32;100694.81;;;10.64;100.00
12247;BME280;6186;52.022;4.692;2022-11-15T04:39:16;100684.22;;;10.67;100.00
12247;BME280;6186;52.022;4.692;2022-11-15T04:41:41;100686.84;;;10.67;100.00
12247;BME280;6186;52.022;4.692;2022-11-15T04:44:06;100697.19;;;10.73;100.00
12247;BME280;6186;52.022;4.692;2022-11-15T04:46:32;100702.38;;;10.76;100.00
12247;BME280;6186;52.022;4.692;2022-11-15T04:48:58;100704.09;;;10.77;100.00
12247;BME280;6186;52.022;4.692;2022-11-15T04:51:23;100704.91;;;10.79;100.00
12247;BME280;6186;52.022;4.692;2022-11-15T04:53:48;100706.59;;;10.82;100.00
12247;BME280;6186;52.022;4.692;2022-11-15T04:56:14;100713.59;;;10.83;100.00
12247;BME280;6186;52.022;4.692;2022-11-15T04:58:39;100715.28;;;10.85;100.00
12247;BME280;6186;52.022;4.692;2022-11-15T05:01:09;100707.28;;;10.88;100.00
12247;BME280;6186;52.022;4.692;2022-11-15T05:03:34;100720.38;;;10.91;100.00
12247;BME280;6186;52.022;4.692;2022-11-15T05:06:18;100703.75;;;10.89;100.00
12247;BME280;6186;52.022;4.692;2022-11-15T05:08:43;100712.31;;;10.96;100.00
12247;BME280;6186;52.022;4.692;2022-11-15T05:11:08;100703.75;;;10.89;100.00
12247;BME280;6186;52.022;4.692;2022-11-15T05:13:34;100722.69;;;11.02;100.00
12247;BME280;6186;52.022;4.692;2022-11-15T05:15:59;100712.25;;;10.99;100.00
12247;BME280;6186;52.022;4.692;2022-11-15T05:18:24;100728.66;;;11.08;100.00
12247;BME280;6186;52.022;4.692;2022-11-15T05:20:50;100725.97;;;11.10;100.00
12247;BME280;6186;52.022;4.692;2022-11-15T05:23:15;100723.28;;;11.11;100.00
12247;BME280;6186;52.022;4.692;2022-11-15T05:25:40;100726.69;;;11.15;100.00
12247;BME280;6186;52.022;4.692;2022-11-15T05:28:05;100706.59;;;11.12;100.00
12247;BME280;6186;52.022;4.692;2022-11-15T05:30:31;100710.03;;;11.14;100.00
12247;BME280;6186;52.022;4.692;2022-11-15T05:32:56;100717.75;;;11.20;100.00
12247;BME280;6186;52.022;4.692;2022-11-15T05:35:36;100708.94;;;11.21;100.00
12247;BME280;6186;52.022;4.692;2022-11-15T05:38:03;100702.75;;;11.22;100.00
12247;BME280;6186;52.022;4.692;2022-11-15T05:40:30;100703.75;;;11.18;100.00
12247;BME280;6186;52.022;4.692;2022-11-15T05:42:56;100705.38;;;11.22;100.00
12247;BME280;6186;52.022;4.692;2022-11-15T05:45:22;100696.66;;;11.22;100.00
12247;BME280;6186;52.022;4.692;2022-11-15T05:47:49;100692.38;;;11.18;100.00
12247;BME280;6186;52.022;4.692;2022-11-15T05:50:17;100694.13;;;11.17;100.00
12247;BME280;6186;52.022;4.692;2022-11-15T05:52:44;100700.13;;;11.22;100.00
12247;BME280;6186;52.022;4.692;2022-11-15T05:55:10;100702.81;;;11.21;100.00
12247;BME280;6186;52.022;4.692;2022-11-15T05:57:36;100704.56;;;11.20;100.00
12247;BME280;6186;52.022;4.692;2022-11-15T06:00:03;100699.41;;;11.17;100.00
12247;BME280;6186;52.022;4.692;2022-11-15T06:02:29;100715.94;;;11.22;100.00
12247;BME280;6186;52.022;4.692;2022-11-15T06:04:54;100709.84;;;11.20;100.00
12247;BME280;6186;52.022;4.692;2022-11-15T06:07:20;100729.09;;;11.24;100.00
12247;BME280;6186;52.022;4.692;2022-11-15T06:09:45;100725.56;;;11.23;100.00
12247;BME280;6186;52.022;4.692;2022-11-15T06:12:10;100731.66;;;11.25;100.00
12247;BME280;6186;52.022;4.692;2022-11-15T06:14:35;100733.47;;;11.23;100.00
12247;BME280;6186;52.022;4.692;2022-11-15T06:17:01;100738.69;;;11.25;100.00
12247;BME280;6186;52.022;4.692;2022-11-15T06:19:27;100737.00;;;11.22;100.00
12247;BME280;6186;52.022;4.692;2022-11-15T06:21:58;100739.63;;;11.22;100.00
12247;BME280;6186;52.022;4.692;2022-11-15T06:24:23;100744.91;;;11.22;100.00
12247;BME280;6186;52.022;4.692;2022-11-15T06:26:48;100738.81;;;11.22;100.00
12247;BME280;6186;52.022;4.692;2022-11-15T06:29:14;100750.22;;;11.21;100.00
12247;BME280;6186;52.022;4.692;2022-11-15T06:31:39;100759.00;;;11.21;100.00
12247;BME280;6186;52.022;4.692;2022-11-15T06:34:04;100751.16;;;11.20;100.00
12247;BME280;6186;52.022;4.692;2022-11-15T06:36:29;100746.09;;;11.12;100.00
12247;BME280;6186;52.022;4.692;2022-11-15T06:38:56;100748.75;;;11.12;100.00
12247;BME280;6186;52.022;4.692;2022-11-15T06:41:21;100752.25;;;11.11;100.00
12247;BME280;6186;52.022;4.692;2022-11-15T06:43:47;100747.16;;;11.05;100.00
12247;BME280;6186;52.022;4.692;2022-11-15T06:46:12;100744.63;;;11.02;100.00
12247;BME280;6186;52.022;4.692;2022-11-15T06:48:38;100741.34;;;10.94;100.00
12247;BME280;6186;52.022;4.692;2022-11-15T06:51:04;100745.78;;;10.94;100.00
12247;BME280;6186;52.022;4.692;2022-11-15T06:53:30;100751.88;;;10.94;100.00
12247;BME280;6186;52.022;4.692;2022-11-15T06:56:04;100761.63;;;10.91;100.00
12247;BME280;6186;52.022;4.692;2022-11-15T06:58:30;100768.72;;;10.89;100.00
12247;BME280;6186;52.022;4.692;2022-11-15T07:01:00;100766.22;;;10.84;100.00
12247;BME280;6186;52.022;4.692;2022-11-15T07:03:26;100772.34;;;10.85;100.00
12247;BME280;6186;52.022;4.692;2022-11-15T07:05:56;100768.03;;;10.82;100.00
12247;BME280;6186;52.022;4.692;2022-11-15T07:08:22;100775.88;;;10.84;100.00
12247;BME280;6186;52.022;4.692;2022-11-15T07:10:48;100759.25;;;10.82;100.00
12247;BME280;6186;52.022;4.692;2022-11-15T07:13:13;100760.13;;;10.82;100.00
12247;BME280;6186;52.022;4.692;2022-11-15T07:15:39;100750.53;;;10.80;100.00
12247;BME280;6186;52.022;4.692;2022-11-15T07:18:04;100753.22;;;10.78;100.00
12247;BME280;6186;52.022;4.692;2022-11-15T07:20:29;100747.09;;;10.78;100.00
12247;BME280;6186;52.022;4.692;2022-11-15T07:23:03;100749.78;;;10.76;100.00
12247;BME280;6186;52.022;4.692;2022-11-15T07:25:29;100762.78;;;10.81;100.00
12247;BME280;6186;52.022;4.692;2022-11-15T07:27:55;100768.06;;;10.81;100.00
12247;BME280;6186;52.022;4.692;2022-11-15T07:30:20;100766.28;;;10.81;100.00
12247;BME280;6186;52.022;4.692;2022-11-15T07:32:46;100767.13;;;10.83;100.00
12247;BME280;6186;52.022;4.692;2022-11-15T07:35:11;100763.72;;;10.80;100.00
12247;BME280;6186;52.022;4.692;2022-11-15T07:37:37;100766.22;;;10.84;100.00
12247;BME280;6186;52.022;4.692;2022-11-15T07:40:02;100757.50;;;10.82;100.00
12247;BME280;6186;52.022;4.692;2022-11-15T07:42:27;100755.75;;;10.81;100.00
12247;BME280;6186;52.022;4.692;2022-11-15T07:45:14;100755.84;;;10.78;100.00
12247;BME280;6186;52.022;4.692;2022-11-15T07:47:39;100753.28;;;10.75;100.00
12247;BME280;6186;52.022;4.692;2022-11-15T07:50:05;100748.16;;;10.71;100.00
12247;BME280;6186;52.022;4.692;2022-11-15T07:52:30;100766.53;;;10.72;100.00
12247;BME280;6186;52.022;4.692;2022-11-15T07:54:55;100756.06;;;10.71;100.00
12247;BME280;6186;52.022;4.692;2022-11-15T07:57:20;100752.47;;;10.73;100.00
12247;BME280;6186;52.022;4.692;2022-11-15T07:59:46;100750.66;;;10.75;100.00
12247;BME280;6186;52.022;4.692;2022-11-15T08:02:11;100747.13;;;10.76;100.00
12247;BME280;6186;52.022;4.692;2022-11-15T08:04:37;100746.22;;;10.77;100.00
12247;BME280;6186;52.022;4.692;2022-11-15T08:07:02;100731.28;;;10.78;100.00
12247;BME280;6186;52.022;4.692;2022-11-15T08:09:27;100735.56;;;10.82;100.00
12247;BME280;6186;52.022;4.692;2022-11-15T08:11:52;100732.88;;;10.83;100.00
12247;BME280;6186;52.022;4.692;2022-11-15T08:14:18;100725.00;;;10.83;100.00
12247;BME280;6186;52.022;4.692;2022-11-15T08:16:43;100732.88;;;10.83;100.00
12247;BME280;6186;52.022;4.692;2022-11-15T08:19:08;100724.09;;;10.84;100.00
12247;BME280;6186;52.022;4.692;2022-11-15T08:21:34;100727.56;;;10.85;100.00
12247;BME280;6186;52.022;4.692;2022-11-15T08:24:00;100716.94;;;10.89;100.00
12247;BME280;6186;52.022;4.692;2022-11-15T08:26:26;100718.47;;;10.96;100.00
12247;BME280;6186;52.022;4.692;2022-11-15T08:28:54;100713.91;;;11.03;100.00
12247;BME280;6186;52.022;4.692;2022-11-15T08:31:19;100725.16;;;11.08;100.00
12247;BME280;6186;52.022;4.692;2022-11-15T08:33:45;100714.50;;;11.12;100.00
12247;BME280;6186;52.022;4.692;2022-11-15T08:36:15;100709.06;;;11.17;100.00
12247;BME280;6186;52.022;4.692;2022-11-15T08:38:41;100709.81;;;11.22;100.00
12247;BME280;6186;52.022;4.692;2022-11-15T08:41:30;100711.31;;;11.30;100.00
12247;BME280;6186;52.022;4.692;2022-11-15T08:43:55;100715.56;;;11.34;100.00
12247;BME280;6186;52.022;4.692;2022-11-15T08:46:21;100715.44;;;11.39;100.00
12247;BME280;6186;52.022;4.692;2022-11-15T08:48:46;100709.25;;;11.40;100.00
12247;BME280;6186;52.022;4.692;2022-11-15T08:51:12;100700.53;;;11.38;100.00
12247;BME280;6186;52.022;4.692;2022-11-15T08:53:37;100703.03;;;11.43;100.00
12247;BME280;6186;52.022;4.692;2022-11-15T08:56:07;100699.28;;;11.50;100.00
12247;BME280;6186;52.022;4.692;2022-11-15T08:58:33;100693.06;;;11.52;100.00
12247;BME280;6186;52.022;4.692;2022-11-15T09:00:58;100685.41;;;11.45;100.00
12247;BME280;6186;52.022;4.692;2022-11-15T09:03:24;100688.69;;;11.51;100.00
12247;BME280;6186;52.022;4.692;2022-11-15T09:05:57;100685.28;;;11.48;100.00
12247;BME280;6186;52.022;4.692;2022-11-15T09:08:23;100690.75;;;11.42;100.00
12247;BME280;6186;52.022;4.692;2022-11-15T09:10:48;100691.56;;;11.44;100.00
12247;BME280;6186;52.022;4.692;2022-11-15T09:13:13;100703.03;;;11.43;100.00
12247;BME280;6186;52.022;4.692;2022-11-15T09:15:39;100692.53;;;11.41;100.00
12247;BME280;6186;52.022;4.692;2022-11-15T09:18:04;100702.06;;;11.45;100.00
12247;BME280;6186;52.022;4.692;2022-11-15T09:20:29;100698.59;;;11.45;100.00
12247;BME280;6186;52.022;4.692;2022-11-15T09:22:59;100695.72;;;11.51;100.00
12247;BME280;6186;52.022;4.692;2022-11-15T09:25:24;100709.66;;;11.56;100.00
12247;BME280;6186;52.022;4.692;2022-11-15T09:27:50;100691.09;;;11.59;100.00
12247;BME280;6186;52.022;4.692;2022-11-15T09:30:15;100700.63;;;11.63;100.00
12247;BME280;6186;52.022;4.692;2022-11-15T09:32:41;100699.72;;;11.64;100.00
12247;BME280;6186;52.022;4.692;2022-11-15T09:35:06;100694.31;;;11.68;100.00
12247;BME280;6186;52.022;4.692;2022-11-15T09:37:32;100688.91;;;11.73;100.00
12247;BME280;6186;52.022;4.692;2022-11-15T09:39:57;100692.94;;;11.84;100.00
12247;BME280;6186;52.022;4.692;2022-11-15T09:50:14;100694.69;;;12.10;100.00
12247;BME280;6186;52.022;4.692;2022-11-15T09:52:43;100696.47;;;12.09;100.00
12247;BME280;6186;52.022;4.692;2022-11-15T09:55:10;100696.31;;;12.14;100.00
12247;BME280;6186;52.022;4.692;2022-11-15T09:57:52;100705.88;;;12.18;100.00
12247;BME280;6186;52.022;4.692;2022-11-15T10:00:27;100688.97;;;12.23;100.00
12247;BME280;6186;52.022;4.692;2022-11-15T10:05:26;100666.34;;;12.41;100.00
12247;BME280;6186;52.022;4.692;2022-11-15T10:10:49;100666.06;;;12.49;100.00
12247;BME280;6186;52.022;4.692;2022-11-15T10:15:47;100643.94;;;12.53;100.00
12247;BME280;6186;52.022;4.692;2022-11-15T10:18:17;100644.56;;;12.59;100.00
12247;BME280;6186;52.022;4.692;2022-11-15T10:21:12;100641.81;;;12.62;100.00
12247;BME280;6186;52.022;4.692;2022-11-15T10:23:33;100651.09;;;12.72;100.00
12247;BME280;6186;52.022;4.692;2022-11-15T10:25:59;100644.41;;;12.87;100.00
12247;BME280;6186;52.022;4.692;2022-11-15T10:28:31;100639.44;;;13.01;100.00
12247;BME280;6186;52.022;4.692;2022-11-15T10:31:00;100647.19;;;13.29;100.00
12247;BME280;6186;52.022;4.692;2022-11-15T10:33:35;100642.00;;;13.49;100.00
12247;BME280;6186;52.022;4.692;2022-11-15T10:36:22;100637.72;;;13.88;100.00
12247;BME280;6186;52.022;4.692;2022-11-15T10:47:05;100602.41;;;16.29;100.00
12247;BME280;6186;52.022;4.692;2022-11-15T10:49:31;100605.88;;;16.79;100.00
12247;BME280;6186;52.022;4.692;2022-11-15T10:51:58;100588.59;;;17.19;100.00
12247;BME280;6186;52.022;4.692;2022-11-15T10:54:34;100591.16;;;17.21;100.00
12247;BME280;6186;52.022;4.692;2022-11-15T10:57:08;100604.88;;;16.82;100.00
12247;BME280;6186;52.022;4.692;2022-11-15T10:59:37;100602.78;;;16.39;100.00
12247;BME280;6186;52.022;4.692;2022-11-15T11:04:54;100607.41;;;15.67;100.00
12247;BME280;6186;52.022;4.692;2022-11-15T11:07:25;100589.88;;;15.27;100.00
12247;BME280;6186;52.022;4.692;2022-11-15T11:09:59;100588.31;;;14.86;100.00
12247;BME280;6186;52.022;4.692;2022-11-15T11:12:30;100581.84;;;14.54;100.00
12247;BME280;6186;52.022;4.692;2022-11-15T11:14:57;100584.41;;;14.37;100.00
12247;BME280;6186;52.022;4.692;2022-11-15T11:28:35;100559.25;;;14.84;100.00
12247;BME280;6186;52.022;4.692;2022-11-15T11:34:40;100539.72;;;15.23;100.00
12247;BME280;6186;52.022;4.692;2022-11-15T11:40:07;100534.16;;;15.97;100.00
12247;BME280;6186;52.022;4.692;2022-11-15T11:48:20;100523.28;;;16.01;100.00
12247;BME280;6186;52.022;4.692;2022-11-15T11:50:46;100515.13;;;15.89;100.00
12247;BME280;6186;52.022;4.692;2022-11-15T11:53:17;100507.16;;;15.72;100.00
12247;BME280;6186;52.022;4.692;2022-11-15T11:55:51;100500.47;;;15.65;100.00
12247;BME280;6186;52.022;4.692;2022-11-15T11:58:40;100496.56;;;15.72;100.00
12247;BME280;6186;52.022;4.692;2022-11-15T12:01:34;100498.72;;;15.98;100.00
12247;BME280;6186;52.022;4.692;2022-11-15T12:04:29;100494.41;;;16.28;100.00
12247;BME280;6186;52.022;4.692;2022-11-15T12:07:05;100491.16;;;16.56;100.00
12247;BME280;6186;52.022;4.692;2022-11-15T12:09:42;100480.19;;;16.93;100.00
12247;BME280;6186;52.022;4.692;2022-11-15T12:12:15;100475.44;;;17.43;100.00
12247;BME280;6186;52.022;4.692;2022-11-15T12:17:31;100464.44;;;18.21;100.00
12247;BME280;6186;52.022;4.692;2022-11-15T12:20:03;100452.81;;;18.36;100.00
12247;BME280;6186;52.022;4.692;2022-11-15T12:27:57;100433.25;;;18.78;100.00
12247;BME280;6186;52.022;4.692;2022-11-15T12:30:30;100434.47;;;19.13;100.00
12247;BME280;6186;52.022;4.692;2022-11-15T12:33:02;100429.31;;;19.37;100.00
12247;BME280;6186;52.022;4.692;2022-11-15T12:35:35;100427.72;;;19.47;100.00
12247;BME280;6186;52.022;4.692;2022-11-15T12:38:01;100426.00;;;19.46;100.00
12247;BME280;6186;52.022;4.692;2022-11-15T12:40:32;100421.28;;;19.37;100.00
12247;BME280;6186;52.022;4.692;2022-11-15T12:42:59;100414.69;;;19.55;100.00
12247;BME280;6186;52.022;4.692;2022-11-15T12:45:35;100417.81;;;19.87;100.00
12247;BME280;6186;52.022;4.692;2022-11-15T12:58:51;100393.56;;;18.73;100.00
12247;BME280;6186;52.022;4.692;2022-11-15T13:07:04;100384.53;;;17.51;100.00
12247;BME280;6186;52.022;4.692;2022-11-15T13:11:58;100368.06;;;16.71;100.00
12247;BME280;6186;52.022;4.692;2022-11-15T13:17:09;100372.34;;;16.42;100.00
12247;BME280;6186;52.022;4.692;2022-11-15T13:19:37;100367.00;;;16.11;100.00
12247;BME280;6186;52.022;4.692;2022-11-15T13:22:08;100365.78;;;15.85;100.00
12247;BME280;6186;52.022;4.692;2022-11-15T13:24:52;100365.22;;;15.63;100.00
12247;BME280;6186;52.022;4.692;2022-11-15T13:27:19;100359.09;;;15.46;100.00
12247;BME280;6186;52.022;4.692;2022-11-15T13:29:45;100346.63;;;15.31;100.00
12247;BME280;6186;52.022;4.692;2022-11-15T13:32:15;100351.00;;;15.15;100.00
12247;BME280;6186;52.022;4.692;2022-11-15T13:34:45;100332.44;;;14.97;100.00
12247;BME280;6186;52.022;4.692;2022-11-15T13:37:38;100343.59;;;14.87;100.00
12247;BME280;6186;52.022;4.692;2022-11-15T13:40:18;100332.59;;;14.77;100.00
12247;BME280;6186;52.022;4.692;2022-11-15T13:42:45;100325.13;;;14.68;100.00
12247;BME280;6186;52.022;4.692;2022-11-15T13:45:14;100325.44;;;14.62;100.00
12247;BME280;6186;52.022;4.692;2022-11-15T13:47:40;100312.66;;;14.53;100.00
12247;BME280;6186;52.022;4.692;2022-11-15T13:50:05;100318.00;;;14.52;100.00
12247;BME280;6186;52.022;4.692;2022-11-15T13:52:35;100290.00;;;14.29;100.00
12247;BME280;6186;52.022;4.692;2022-11-15T13:55:11;100310.81;;;14.37;100.00
12247;BME280;6186;52.022;4.692;2022-11-15T13:57:56;100306.66;;;14.31;100.00
12247;BME280;6186;52.022;4.692;2022-11-15T14:00:42;100292.00;;;14.24;100.00
12247;BME280;6186;52.022;4.692;2022-11-15T14:03:23;100288.56;;;14.22;100.00
12247;BME280;6186;52.022;4.692;2022-11-15T14:06:09;100281.88;;;14.15;100.00
12247;BME280;6186;52.022;4.692;2022-11-15T14:09:00;100280.28;;;14.11;100.00
12247;BME280;6186;52.022;4.692;2022-11-15T14:11:26;100264.69;;;14.05;100.00
12247;BME280;6186;52.022;4.692;2022-11-15T14:16:39;100257.22;;;13.96;100.00
12247;BME280;6186;52.022;4.692;2022-11-15T14:19:08;100259.28;;;13.89;100.00
12247;BME280;6186;52.022;4.692;2022-11-15T14:21:34;100244.56;;;13.84;100.00
12247;BME280;6186;52.022;4.692;2022-11-15T14:24:18;100256.88;;;13.85;100.00
12247;BME280;6186;52.022;4.692;2022-11-15T14:26:44;100239.44;;;13.81;100.00
12247;BME280;6186;52.022;4.692;2022-11-15T14:29:26;100248.28;;;13.80;100.00
12247;BME280;6186;52.022;4.692;2022-11-15T14:31:53;100228.84;;;13.81;100.00
12247;BME280;6186;52.022;4.692;2022-11-15T14:34:19;100222.78;;;13.79;100.00
12247;BME280;6186;52.022;4.692;2022-11-15T14:36:46;100226.34;;;13.78;100.00
12247;BME280;6186;52.022;4.692;2022-11-15T14:39:12;100228.97;;;13.78;100.00
12247;BME280;6186;52.022;4.692;2022-11-15T14:41:37;100212.66;;;13.70;100.00
12247;BME280;6186;52.022;4.692;2022-11-15T14:44:09;100207.41;;;13.68;100.00
12247;BME280;6186;52.022;4.692;2022-11-15T14:46:35;100211.78;;;13.69;100.00
12247;BME280;6186;52.022;4.692;2022-11-15T14:49:00;100209.84;;;13.73;100.00
12247;BME280;6186;52.022;4.692;2022-11-15T14:51:26;100208.13;;;13.72;100.00
12247;BME280;6186;52.022;4.692;2022-11-15T14:53:51;100200.50;;;13.66;100.00
12247;BME280;6186;52.022;4.692;2022-11-15T14:56:17;100206.50;;;13.69;100.00
12247;BME280;6186;52.022;4.692;2022-11-15T14:58:42;100196.13;;;13.65;100.00